Impacts TAF Board
For situational awareness. Not to be used for flight planning purposes.
IDs:

KCSG - Columbus Arpt, GA, US

Issued at 2338 UTC 26 Jan 2022
Updated at 0322 UTC 27 Jan 2022
Potential Impact None Slight Moderate High
Time<<27/16Z 27/17Z 27/18Z 27/19Z 27/20Z 27/21Z 27/22Z 27/23Z 28/00Z 28/01Z 28/02Z 28/03Z 28/04Z>>
Type PRVL PRVL PRVL PRVL PRVL PRVL PRVL PRVL
VIS >6 >6 >6 >6 >6 >6 >6 >6
CIG -- -- -- -- -- -- -- --
Cover SCT SCT SCT SCT SCT SCT SCT SCT
FltCat VFR VFR VFR VFR VFR VFR VFR VFR
WX -- -- -- -- -- -- -- --
WDir 90 90 90 90 90 90 90 80
WSpd 8 8 8 8 8 8 8 3
WGst -- -- -- -- -- -- -- --
WSHgt -- -- -- -- -- -- -- --
WSDir -- -- -- -- -- -- -- --
WSSpd -- -- -- -- -- -- -- --
Raw TAF
KCSG 262338Z 2700/2724 04003KT P6SM FEW250
  FM271400 09008KT P6SM SCT250
  FM272300 08003KT P6SM SCT250


METAR Board
Radar Display
Forecast Discussion
For situational awareness. Not to be used for flight planning purposes.